sensor_id;sensor_type;location;lat;lon;timestamp;P1;durP1;ratioP1;P2;durP2;ratioP2
23300;SDS011;11819;51.394;12.340;2022-08-24T00:00:56;14.40;;;11.65;;
23300;SDS011;11819;51.394;12.340;2022-08-24T00:03:22;17.60;;;11.65;;
23300;SDS011;11819;51.394;12.340;2022-08-24T00:05:49;12.70;;;10.52;;
23300;SDS011;11819;51.394;12.340;2022-08-24T00:08:15;14.10;;;11.13;;
23300;SDS011;11819;51.394;12.340;2022-08-24T00:10:43;12.25;;;10.98;;
23300;SDS011;11819;51.394;12.340;2022-08-24T00:13:08;16.80;;;10.20;;
23300;SDS011;11819;51.394;12.340;2022-08-24T00:15:34;12.35;;;10.45;;
23300;SDS011;11819;51.394;12.340;2022-08-24T00:17:59;15.05;;;10.32;;
23300;SDS011;11819;51.394;12.340;2022-08-24T00:20:25;14.98;;;10.68;;
23300;SDS011;11819;51.394;12.340;2022-08-24T00:22:51;12.00;;;9.68;;
23300;SDS011;11819;51.394;12.340;2022-08-24T00:25:17;11.40;;;10.25;;
23300;SDS011;11819;51.394;12.340;2022-08-24T00:27:44;12.25;;;10.52;;
23300;SDS011;11819;51.394;12.340;2022-08-24T00:30:11;13.55;;;10.57;;
23300;SDS011;11819;51.394;12.340;2022-08-24T00:32:42;12.75;;;9.75;;
23300;SDS011;11819;51.394;12.340;2022-08-24T00:35:10;10.07;;;9.00;;
23300;SDS011;11819;51.394;12.340;2022-08-24T00:37:37;12.23;;;9.15;;
23300;SDS011;11819;51.394;12.340;2022-08-24T00:40:04;13.13;;;8.60;;
23300;SDS011;11819;51.394;12.340;2022-08-24T00:42:36;12.50;;;10.55;;
23300;SDS011;11819;51.394;12.340;2022-08-24T00:45:03;13.05;;;9.48;;
23300;SDS011;11819;51.394;12.340;2022-08-24T00:47:34;14.02;;;10.63;;
23300;SDS011;11819;51.394;12.340;2022-08-24T00:50:07;12.00;;;10.05;;
23300;SDS011;11819;51.394;12.340;2022-08-24T00:52:39;11.77;;;10.32;;
23300;SDS011;11819;51.394;12.340;2022-08-24T00:55:19;11.45;;;10.20;;
23300;SDS011;11819;51.394;12.340;2022-08-24T00:57:48;14.50;;;10.25;;
23300;SDS011;11819;51.394;12.340;2022-08-24T01:00:20;12.98;;;9.82;;
23300;SDS011;11819;51.394;12.340;2022-08-24T01:02:50;13.57;;;9.95;;
23300;SDS011;11819;51.394;12.340;2022-08-24T01:05:17;14.57;;;10.18;;
23300;SDS011;11819;51.394;12.340;2022-08-24T01:07:43;11.98;;;10.18;;
23300;SDS011;11819;51.394;12.340;2022-08-24T01:10:13;14.07;;;10.35;;
23300;SDS011;11819;51.394;12.340;2022-08-24T01:12:43;12.45;;;10.35;;
23300;SDS011;11819;51.394;12.340;2022-08-24T01:15:13;11.93;;;10.18;;
23300;SDS011;11819;51.394;12.340;2022-08-24T01:17:40;11.45;;;9.95;;
23300;SDS011;11819;51.394;12.340;2022-08-24T01:20:25;13.40;;;10.93;;
23300;SDS011;11819;51.394;12.340;2022-08-24T01:23:04;14.60;;;10.55;;
23300;SDS011;11819;51.394;12.340;2022-08-24T01:25:53;14.05;;;11.05;;
23300;SDS011;11819;51.394;12.340;2022-08-24T01:28:19;14.48;;;10.52;;
23300;SDS011;11819;51.394;12.340;2022-08-24T01:30:45;12.70;;;11.05;;
23300;SDS011;11819;51.394;12.340;2022-08-24T01:33:21;12.68;;;10.35;;
23300;SDS011;11819;51.394;12.340;2022-08-24T01:35:53;11.85;;;10.63;;
23300;SDS011;11819;51.394;12.340;2022-08-24T01:38:24;11.20;;;9.57;;
23300;SDS011;11819;51.394;12.340;2022-08-24T01:40:51;13.52;;;9.95;;
23300;SDS011;11819;51.394;12.340;2022-08-24T01:43:21;12.73;;;10.77;;
23300;SDS011;11819;51.394;12.340;2022-08-24T01:45:48;13.18;;;9.68;;
23300;SDS011;11819;51.394;12.340;2022-08-24T01:48:14;13.45;;;10.05;;
23300;SDS011;11819;51.394;12.340;2022-08-24T01:50:40;11.90;;;10.10;;
23300;SDS011;11819;51.394;12.340;2022-08-24T01:53:08;12.30;;;10.27;;
23300;SDS011;11819;51.394;12.340;2022-08-24T01:55:34;11.88;;;9.60;;
23300;SDS011;11819;51.394;12.340;2022-08-24T01:58:00;14.57;;;10.32;;
23300;SDS011;11819;51.394;12.340;2022-08-24T02:00:28;11.48;;;10.00;;
23300;SDS011;11819;51.394;12.340;2022-08-24T02:02:54;14.23;;;9.70;;
23300;SDS011;11819;51.394;12.340;2022-08-24T02:05:22;12.30;;;10.45;;
23300;SDS011;11819;51.394;12.340;2022-08-24T02:07:48;15.32;;;10.43;;
23300;SDS011;11819;51.394;12.340;2022-08-24T02:10:15;15.32;;;10.40;;
23300;SDS011;11819;51.394;12.340;2022-08-24T02:12:42;11.45;;;10.25;;
23300;SDS011;11819;51.394;12.340;2022-08-24T02:15:21;13.20;;;10.65;;
23300;SDS011;11819;51.394;12.340;2022-08-24T02:17:52;13.70;;;10.50;;
23300;SDS011;11819;51.394;12.340;2022-08-24T02:20:19;13.57;;;11.10;;
23300;SDS011;11819;51.394;12.340;2022-08-24T02:22:46;11.90;;;10.60;;
23300;SDS011;11819;51.394;12.340;2022-08-24T02:25:13;12.80;;;10.38;;
23300;SDS011;11819;51.394;12.340;2022-08-24T02:27:39;13.07;;;10.32;;
23300;SDS011;11819;51.394;12.340;2022-08-24T02:30:05;15.88;;;10.75;;
23300;SDS011;11819;51.394;12.340;2022-08-24T02:32:32;12.55;;;9.70;;
23300;SDS011;11819;51.394;12.340;2022-08-24T02:34:57;12.38;;;10.38;;
23300;SDS011;11819;51.394;12.340;2022-08-24T02:37:23;12.45;;;10.70;;
23300;SDS011;11819;51.394;12.340;2022-08-24T02:39:49;11.68;;;9.95;;
23300;SDS011;11819;51.394;12.340;2022-08-24T02:42:18;12.23;;;10.93;;
23300;SDS011;11819;51.394;12.340;2022-08-24T02:44:43;13.40;;;11.43;;
23300;SDS011;11819;51.394;12.340;2022-08-24T02:47:10;14.50;;;11.52;;
23300;SDS011;11819;51.394;12.340;2022-08-24T02:49:36;12.48;;;10.15;;
23300;SDS011;11819;51.394;12.340;2022-08-24T02:52:02;13.02;;;10.82;;
23300;SDS011;11819;51.394;12.340;2022-08-24T02:54:32;12.27;;;11.02;;
23300;SDS011;11819;51.394;12.340;2022-08-24T02:56:57;12.52;;;10.43;;
23300;SDS011;11819;51.394;12.340;2022-08-24T02:59:23;12.05;;;10.48;;
23300;SDS011;11819;51.394;12.340;2022-08-24T03:01:49;13.02;;;10.40;;
23300;SDS011;11819;51.394;12.340;2022-08-24T03:04:16;14.90;;;11.15;;
23300;SDS011;11819;51.394;12.340;2022-08-24T03:06:42;13.85;;;12.27;;
23300;SDS011;11819;51.394;12.340;2022-08-24T03:09:08;13.93;;;11.15;;
23300;SDS011;11819;51.394;12.340;2022-08-24T03:11:35;14.68;;;12.05;;
23300;SDS011;11819;51.394;12.340;2022-08-24T03:14:01;15.77;;;13.23;;
23300;SDS011;11819;51.394;12.340;2022-08-24T03:16:27;19.17;;;13.88;;
23300;SDS011;11819;51.394;12.340;2022-08-24T03:18:54;13.93;;;11.98;;
23300;SDS011;11819;51.394;12.340;2022-08-24T03:21:20;15.10;;;11.95;;
23300;SDS011;11819;51.394;12.340;2022-08-24T03:23:47;13.32;;;11.93;;
23300;SDS011;11819;51.394;12.340;2022-08-24T03:26:12;15.57;;;13.25;;
23300;SDS011;11819;51.394;12.340;2022-08-24T03:28:38;15.02;;;12.25;;
23300;SDS011;11819;51.394;12.340;2022-08-24T03:31:04;15.32;;;12.30;;
23300;SDS011;11819;51.394;12.340;2022-08-24T03:33:30;13.82;;;11.57;;
23300;SDS011;11819;51.394;12.340;2022-08-24T03:35:56;14.70;;;13.05;;
23300;SDS011;11819;51.394;12.340;2022-08-24T03:38:22;16.23;;;12.50;;
23300;SDS011;11819;51.394;12.340;2022-08-24T03:40:48;14.70;;;12.82;;
23300;SDS011;11819;51.394;12.340;2022-08-24T03:43:14;16.02;;;11.50;;
23300;SDS011;11819;51.394;12.340;2022-08-24T03:45:59;16.77;;;13.25;;
23300;SDS011;11819;51.394;12.340;2022-08-24T03:48:27;17.35;;;11.88;;
23300;SDS011;11819;51.394;12.340;2022-08-24T03:50:56;14.95;;;12.23;;
23300;SDS011;11819;51.394;12.340;2022-08-24T03:53:22;13.30;;;11.20;;
23300;SDS011;11819;51.394;12.340;2022-08-24T03:55:48;15.57;;;12.05;;
23300;SDS011;11819;51.394;12.340;2022-08-24T03:58:14;16.98;;;12.52;;
23300;SDS011;11819;51.394;12.340;2022-08-24T04:00:40;14.27;;;11.95;;
23300;SDS011;11819;51.394;12.340;2022-08-24T04:03:10;18.55;;;13.10;;
23300;SDS011;11819;51.394;12.340;2022-08-24T04:05:36;16.23;;;12.73;;
23300;SDS011;11819;51.394;12.340;2022-08-24T04:08:04;15.65;;;11.95;;
23300;SDS011;11819;51.394;12.340;2022-08-24T04:10:30;15.25;;;12.23;;
23300;SDS011;11819;51.394;12.340;2022-08-24T04:12:57;17.38;;;12.82;;
23300;SDS011;11819;51.394;12.340;2022-08-24T04:15:25;17.65;;;11.30;;
23300;SDS011;11819;51.394;12.340;2022-08-24T04:17:54;12.43;;;11.13;;
23300;SDS011;11819;51.394;12.340;2022-08-24T04:20:19;15.07;;;11.45;;
23300;SDS011;11819;51.394;12.340;2022-08-24T04:22:45;14.75;;;11.40;;
23300;SDS011;11819;51.394;12.340;2022-08-24T04:25:11;14.27;;;11.82;;
23300;SDS011;11819;51.394;12.340;2022-08-24T04:27:38;14.63;;;11.75;;
23300;SDS011;11819;51.394;12.340;2022-08-24T04:30:05;24.08;;;12.60;;
23300;SDS011;11819;51.394;12.340;2022-08-24T04:32:43;19.73;;;13.70;;
23300;SDS011;11819;51.394;12.340;2022-08-24T04:35:09;15.77;;;12.73;;
23300;SDS011;11819;51.394;12.340;2022-08-24T04:37:35;16.13;;;12.80;;
23300;SDS011;11819;51.394;12.340;2022-08-24T04:40:02;15.43;;;12.27;;
23300;SDS011;11819;51.394;12.340;2022-08-24T04:42:35;15.68;;;11.88;;
23300;SDS011;11819;51.394;12.340;2022-08-24T04:45:01;17.33;;;12.18;;
23300;SDS011;11819;51.394;12.340;2022-08-24T04:47:27;15.82;;;12.50;;
23300;SDS011;11819;51.394;12.340;2022-08-24T04:49:52;17.30;;;11.98;;
23300;SDS011;11819;51.394;12.340;2022-08-24T04:52:18;16.77;;;12.75;;
23300;SDS011;11819;51.394;12.340;2022-08-24T04:54:44;18.92;;;13.25;;
23300;SDS011;11819;51.394;12.340;2022-08-24T04:57:16;17.10;;;12.98;;
23300;SDS011;11819;51.394;12.340;2022-08-24T04:59:42;19.30;;;13.75;;
23300;SDS011;11819;51.394;12.340;2022-08-24T05:02:08;15.27;;;12.30;;
23300;SDS011;11819;51.394;12.340;2022-08-24T05:04:35;16.35;;;12.48;;
23300;SDS011;11819;51.394;12.340;2022-08-24T05:07:01;15.57;;;12.90;;
23300;SDS011;11819;51.394;12.340;2022-08-24T05:09:29;15.07;;;12.55;;
23300;SDS011;11819;51.394;12.340;2022-08-24T05:11:54;19.58;;;12.77;;
23300;SDS011;11819;51.394;12.340;2022-08-24T05:14:24;16.92;;;13.40;;
23300;SDS011;11819;51.394;12.340;2022-08-24T05:16:51;16.75;;;13.23;;
23300;SDS011;11819;51.394;12.340;2022-08-24T05:19:17;18.30;;;13.88;;
23300;SDS011;11819;51.394;12.340;2022-08-24T05:21:42;15.85;;;14.23;;
23300;SDS011;11819;51.394;12.340;2022-08-24T05:24:08;19.00;;;14.05;;
23300;SDS011;11819;51.394;12.340;2022-08-24T05:26:34;18.15;;;13.60;;
23300;SDS011;11819;51.394;12.340;2022-08-24T05:29:01;16.55;;;14.10;;
23300;SDS011;11819;51.394;12.340;2022-08-24T05:31:36;19.02;;;13.73;;
23300;SDS011;11819;51.394;12.340;2022-08-24T05:34:06;19.80;;;15.15;;
23300;SDS011;11819;51.394;12.340;2022-08-24T05:36:33;18.52;;;15.23;;
23300;SDS011;11819;51.394;12.340;2022-08-24T05:39:08;19.88;;;16.45;;
23300;SDS011;11819;51.394;12.340;2022-08-24T05:41:38;22.83;;;18.65;;
23300;SDS011;11819;51.394;12.340;2022-08-24T05:44:11;21.17;;;18.40;;
23300;SDS011;11819;51.394;12.340;2022-08-24T05:46:38;23.23;;;18.48;;
23300;SDS011;11819;51.394;12.340;2022-08-24T05:49:04;24.33;;;19.58;;
23300;SDS011;11819;51.394;12.340;2022-08-24T05:51:31;22.10;;;18.80;;
23300;SDS011;11819;51.394;12.340;2022-08-24T05:54:04;23.58;;;18.08;;
23300;SDS011;11819;51.394;12.340;2022-08-24T05:56:46;24.20;;;19.88;;
23300;SDS011;11819;51.394;12.340;2022-08-24T05:59:12;27.08;;;21.08;;
23300;SDS011;11819;51.394;12.340;2022-08-24T06:01:40;22.13;;;18.60;;
23300;SDS011;11819;51.394;12.340;2022-08-24T06:04:06;20.33;;;18.17;;
23300;SDS011;11819;51.394;12.340;2022-08-24T06:06:32;23.10;;;19.45;;
23300;SDS011;11819;51.394;12.340;2022-08-24T06:08:59;22.35;;;19.23;;
23300;SDS011;11819;51.394;12.340;2022-08-24T06:11:28;23.75;;;19.23;;
23300;SDS011;11819;51.394;12.340;2022-08-24T06:13:59;23.80;;;19.05;;
23300;SDS011;11819;51.394;12.340;2022-08-24T06:16:30;26.50;;;20.33;;
23300;SDS011;11819;51.394;12.340;2022-08-24T06:19:02;22.00;;;18.90;;
23300;SDS011;11819;51.394;12.340;2022-08-24T06:21:29;23.58;;;19.95;;
23300;SDS011;11819;51.394;12.340;2022-08-24T06:23:56;23.75;;;20.80;;
23300;SDS011;11819;51.394;12.340;2022-08-24T06:26:22;23.10;;;19.38;;
23300;SDS011;11819;51.394;12.340;2022-08-24T06:29:10;24.88;;;19.73;;
23300;SDS011;11819;51.394;12.340;2022-08-24T06:31:43;25.77;;;20.00;;
23300;SDS011;11819;51.394;12.340;2022-08-24T06:34:10;23.58;;;19.88;;
23300;SDS011;11819;51.394;12.340;2022-08-24T06:36:37;22.92;;;19.35;;
23300;SDS011;11819;51.394;12.340;2022-08-24T06:39:04;23.92;;;20.38;;
23300;SDS011;11819;51.394;12.340;2022-08-24T06:41:30;22.02;;;19.63;;
23300;SDS011;11819;51.394;12.340;2022-08-24T06:43:55;21.20;;;18.92;;
23300;SDS011;11819;51.394;12.340;2022-08-24T06:46:25;25.33;;;20.55;;
23300;SDS011;11819;51.394;12.340;2022-08-24T06:48:51;21.73;;;18.33;;
23300;SDS011;11819;51.394;12.340;2022-08-24T06:51:18;22.77;;;17.35;;
23300;SDS011;11819;51.394;12.340;2022-08-24T06:53:47;20.65;;;17.10;;
23300;SDS011;11819;51.394;12.340;2022-08-24T06:56:15;20.65;;;17.92;;
23300;SDS011;11819;51.394;12.340;2022-08-24T06:58:41;20.13;;;16.70;;
23300;SDS011;11819;51.394;12.340;2022-08-24T07:01:14;17.95;;;16.05;;
23300;SDS011;11819;51.394;12.340;2022-08-24T07:03:42;19.55;;;16.23;;
23300;SDS011;11819;51.394;12.340;2022-08-24T07:06:31;17.95;;;15.93;;
23300;SDS011;11819;51.394;12.340;2022-08-24T07:08:59;18.02;;;15.68;;
23300;SDS011;11819;51.394;12.340;2022-08-24T07:11:25;20.75;;;15.88;;
23300;SDS011;11819;51.394;12.340;2022-08-24T07:13:51;18.95;;;15.70;;
23300;SDS011;11819;51.394;12.340;2022-08-24T07:16:18;19.10;;;16.50;;
23300;SDS011;11819;51.394;12.340;2022-08-24T07:18:48;20.00;;;15.15;;
23300;SDS011;11819;51.394;12.340;2022-08-24T07:21:13;21.73;;;16.45;;
23300;SDS011;11819;51.394;12.340;2022-08-24T07:23:48;16.35;;;14.43;;
23300;SDS011;11819;51.394;12.340;2022-08-24T07:26:20;16.20;;;14.35;;
23300;SDS011;11819;51.394;12.340;2022-08-24T07:28:48;15.63;;;12.35;;
23300;SDS011;11819;51.394;12.340;2022-08-24T07:31:16;18.80;;;12.50;;
23300;SDS011;11819;51.394;12.340;2022-08-24T07:33:54;16.88;;;12.93;;
23300;SDS011;11819;51.394;12.340;2022-08-24T07:36:20;15.95;;;13.00;;
23300;SDS011;11819;51.394;12.340;2022-08-24T07:38:46;17.52;;;12.63;;
23300;SDS011;11819;51.394;12.340;2022-08-24T07:41:13;16.27;;;12.15;;
23300;SDS011;11819;51.394;12.340;2022-08-24T07:43:40;14.07;;;12.55;;
23300;SDS011;11819;51.394;12.340;2022-08-24T07:46:05;19.55;;;14.00;;
23300;SDS011;11819;51.394;12.340;2022-08-24T07:48:32;18.15;;;13.32;;
23300;SDS011;11819;51.394;12.340;2022-08-24T07:51:21;13.82;;;11.18;;
23300;SDS011;11819;51.394;12.340;2022-08-24T07:53:46;14.15;;;11.60;;
23300;SDS011;11819;51.394;12.340;2022-08-24T07:56:12;16.35;;;11.18;;
23300;SDS011;11819;51.394;12.340;2022-08-24T07:58:41;14.77;;;11.10;;
23300;SDS011;11819;51.394;12.340;2022-08-24T08:01:08;16.05;;;11.45;;
23300;SDS011;11819;51.394;12.340;2022-08-24T08:03:34;14.93;;;12.10;;
23300;SDS011;11819;51.394;12.340;2022-08-24T08:06:02;16.02;;;11.18;;
23300;SDS011;11819;51.394;12.340;2022-08-24T08:08:32;20.92;;;13.50;;
23300;SDS011;11819;51.394;12.340;2022-08-24T08:10:59;15.10;;;11.70;;
23300;SDS011;11819;51.394;12.340;2022-08-24T08:13:27;16.95;;;13.10;;
23300;SDS011;11819;51.394;12.340;2022-08-24T08:15:54;16.70;;;12.32;;
23300;SDS011;11819;51.394;12.340;2022-08-24T08:18:20;16.45;;;12.88;;
23300;SDS011;11819;51.394;12.340;2022-08-24T08:20:47;20.02;;;12.18;;
23300;SDS011;11819;51.394;12.340;2022-08-24T08:23:13;18.25;;;13.02;;
23300;SDS011;11819;51.394;12.340;2022-08-24T08:26:05;15.05;;;11.00;;
23300;SDS011;11819;51.394;12.340;2022-08-24T08:28:42;12.98;;;9.90;;
23300;SDS011;11819;51.394;12.340;2022-08-24T08:31:08;16.50;;;10.63;;
23300;SDS011;11819;51.394;12.340;2022-08-24T08:33:34;13.05;;;11.35;;
23300;SDS011;11819;51.394;12.340;2022-08-24T08:36:03;14.73;;;11.05;;
23300;SDS011;11819;51.394;12.340;2022-08-24T08:38:32;13.40;;;11.45;;
23300;SDS011;11819;51.394;12.340;2022-08-24T08:44:03;11.15;;;9.50;;
23300;SDS011;11819;51.394;12.340;2022-08-24T08:49:45;13.32;;;10.38;;
23300;SDS011;11819;51.394;12.340;2022-08-24T08:53:26;11.93;;;10.70;;
23300;SDS011;11819;51.394;12.340;2022-08-24T09:04:19;11.93;;;9.30;;
23300;SDS011;11819;51.394;12.340;2022-08-24T09:07:14;11.77;;;8.82;;
23300;SDS011;11819;51.394;12.340;2022-08-24T09:23:47;9.95;;;7.50;;
23300;SDS011;11819;51.394;12.340;2022-08-24T09:26:43;10.68;;;7.10;;
23300;SDS011;11819;51.394;12.340;2022-08-24T09:29:38;11.80;;;7.05;;
23300;SDS011;11819;51.394;12.340;2022-08-24T09:32:33;11.90;;;7.50;;
23300;SDS011;11819;51.394;12.340;2022-08-24T09:35:10;9.88;;;7.10;;
23300;SDS011;11819;51.394;12.340;2022-08-24T09:37:51;10.25;;;7.38;;
23300;SDS011;11819;51.394;12.340;2022-08-24T09:40:35;11.18;;;7.95;;
23300;SDS011;11819;51.394;12.340;2022-08-24T09:43:35;10.63;;;7.70;;
23300;SDS011;11819;51.394;12.340;2022-08-24T09:49:14;10.43;;;6.93;;
23300;SDS011;11819;51.394;12.340;2022-08-24T10:00:43;8.18;;;6.50;;
23300;SDS011;11819;51.394;12.340;2022-08-24T10:03:13;9.45;;;6.43;;
23300;SDS011;11819;51.394;12.340;2022-08-24T10:11:29;9.88;;;6.32;;
23300;SDS011;11819;51.394;12.340;2022-08-24T10:17:17;9.32;;;6.63;;
23300;SDS011;11819;51.394;12.340;2022-08-24T10:22:23;12.00;;;7.70;;
23300;SDS011;11819;51.394;12.340;2022-08-24T10:25:21;10.73;;;7.18;;
23300;SDS011;11819;51.394;12.340;2022-08-24T10:28:14;9.55;;;6.72;;
23300;SDS011;11819;51.394;12.340;2022-08-24T10:30:57;7.68;;;6.60;;
23300;SDS011;11819;51.394;12.340;2022-08-24T10:38:40;9.05;;;6.90;;
23300;SDS011;11819;51.394;12.340;2022-08-24T10:41:34;8.68;;;7.18;;
23300;SDS011;11819;51.394;12.340;2022-08-24T10:44:27;9.48;;;7.47;;
23300;SDS011;11819;51.394;12.340;2022-08-24T10:47:20;9.20;;;7.05;;
23300;SDS011;11819;51.394;12.340;2022-08-24T10:50:11;9.10;;;6.93;;
23300;SDS011;11819;51.394;12.340;2022-08-24T10:55:38;10.60;;;6.82;;
23300;SDS011;11819;51.394;12.340;2022-08-24T11:00:52;9.40;;;6.40;;
23300;SDS011;11819;51.394;12.340;2022-08-24T11:03:19;10.68;;;7.05;;
23300;SDS011;11819;51.394;12.340;2022-08-24T11:05:51;9.65;;;6.60;;
23300;SDS011;11819;51.394;12.340;2022-08-24T11:10:45;9.35;;;6.28;;
23300;SDS011;11819;51.394;12.340;2022-08-24T11:13:26;8.38;;;6.57;;
23300;SDS011;11819;51.394;12.340;2022-08-24T11:15:56;9.13;;;6.20;;
23300;SDS011;11819;51.394;12.340;2022-08-24T11:18:24;10.55;;;6.18;;
23300;SDS011;11819;51.394;12.340;2022-08-24T11:20:52;8.20;;;6.05;;
23300;SDS011;11819;51.394;12.340;2022-08-24T11:25:56;10.30;;;5.82;;
23300;SDS011;11819;51.394;12.340;2022-08-24T11:31:19;6.88;;;5.40;;
23300;SDS011;11819;51.394;12.340;2022-08-24T11:33:56;9.82;;;6.00;;
23300;SDS011;11819;51.394;12.340;2022-08-24T11:36:26;8.68;;;6.03;;
23300;SDS011;11819;51.394;12.340;2022-08-24T11:41:53;9.70;;;6.20;;
23300;SDS011;11819;51.394;12.340;2022-08-24T11:46:54;7.85;;;6.10;;
23300;SDS011;11819;51.394;12.340;2022-08-24T11:49:54;9.10;;;6.53;;
23300;SDS011;11819;51.394;12.340;2022-08-24T11:52:45;9.57;;;6.00;;
23300;SDS011;11819;51.394;12.340;2022-08-24T11:55:16;7.50;;;5.95;;
23300;SDS011;11819;51.394;12.340;2022-08-24T11:58:02;6.70;;;5.78;;
23300;SDS011;11819;51.394;12.340;2022-08-24T12:01:18;9.48;;;6.30;;
23300;SDS011;11819;51.394;12.340;2022-08-24T12:03:42;7.40;;;5.72;;
23300;SDS011;11819;51.394;12.340;2022-08-24T12:06:26;12.50;;;6.57;;
23300;SDS011;11819;51.394;12.340;2022-08-24T12:11:55;7.22;;;5.97;;
23300;SDS011;11819;51.394;12.340;2022-08-24T12:14:35;8.02;;;5.57;;
23300;SDS011;11819;51.394;12.340;2022-08-24T12:17:23;7.07;;;5.60;;
23300;SDS011;11819;51.394;12.340;2022-08-24T12:19:55;8.15;;;5.97;;
23300;SDS011;11819;51.394;12.340;2022-08-24T12:22:25;11.50;;;6.65;;
23300;SDS011;11819;51.394;12.340;2022-08-24T12:24:57;10.63;;;6.15;;
23300;SDS011;11819;51.394;12.340;2022-08-24T12:32:30;6.97;;;5.25;;
23300;SDS011;11819;51.394;12.340;2022-08-24T12:37:40;6.50;;;5.38;;
23300;SDS011;11819;51.394;12.340;2022-08-24T12:42:52;7.18;;;5.60;;
23300;SDS011;11819;51.394;12.340;2022-08-24T12:45:20;7.88;;;5.07;;
23300;SDS011;11819;51.394;12.340;2022-08-24T12:47:49;6.93;;;5.03;;
23300;SDS011;11819;51.394;12.340;2022-08-24T13:01:04;7.22;;;5.15;;
23300;SDS011;11819;51.394;12.340;2022-08-24T13:03:32;10.65;;;5.80;;
23300;SDS011;11819;51.394;12.340;2022-08-24T13:05:59;5.97;;;4.43;;
23300;SDS011;11819;51.394;12.340;2022-08-24T13:08:43;7.03;;;4.97;;
23300;SDS011;11819;51.394;12.340;2022-08-24T13:11:14;6.63;;;5.18;;
23300;SDS011;11819;51.394;12.340;2022-08-24T13:21:57;7.68;;;5.00;;
23300;SDS011;11819;51.394;12.340;2022-08-24T13:29:36;6.63;;;5.40;;
23300;SDS011;11819;51.394;12.340;2022-08-24T13:32:21;9.15;;;5.43;;
23300;SDS011;11819;51.394;12.340;2022-08-24T13:51:50;8.30;;;4.85;;
23300;SDS011;11819;51.394;12.340;2022-08-24T13:54:32;7.10;;;4.90;;
23300;SDS011;11819;51.394;12.340;2022-08-24T14:04:45;7.30;;;5.35;;
23300;SDS011;11819;51.394;12.340;2022-08-24T14:07:30;5.90;;;5.00;;
23300;SDS011;11819;51.394;12.340;2022-08-24T14:12:52;6.47;;;5.20;;
23300;SDS011;11819;51.394;12.340;2022-08-24T14:15:33;7.68;;;5.22;;
23300;SDS011;11819;51.394;12.340;2022-08-24T14:18:43;6.22;;;5.10;;
23300;SDS011;11819;51.394;12.340;2022-08-24T14:21:43;7.53;;;5.28;;
23300;SDS011;11819;51.394;12.340;2022-08-24T14:24:26;6.88;;;5.05;;
23300;SDS011;11819;51.394;12.340;2022-08-24T14:27:08;6.63;;;5.13;;
23300;SDS011;11819;51.394;12.340;2022-08-24T14:30:35;7.57;;;4.95;;
23300;SDS011;11819;51.394;12.340;2022-08-24T14:35:27;6.82;;;4.65;;
23300;SDS011;11819;51.394;12.340;2022-08-24T14:38:06;7.28;;;4.80;;
23300;SDS011;11819;51.394;12.340;2022-08-24T14:40:41;7.10;;;4.43;;
23300;SDS011;11819;51.394;12.340;2022-08-24T14:43:28;6.85;;;4.80;;
23300;SDS011;11819;51.394;12.340;2022-08-24T14:45:57;8.15;;;4.85;;
23300;SDS011;11819;51.394;12.340;2022-08-24T14:58:07;7.50;;;4.80;;
23300;SDS011;11819;51.394;12.340;2022-08-24T15:00:54;8.02;;;4.85;;
23300;SDS011;11819;51.394;12.340;2022-08-24T15:03:32;8.55;;;5.18;;
23300;SDS011;11819;51.394;12.340;2022-08-24T15:09:25;6.30;;;4.82;;
23300;SDS011;11819;51.394;12.340;2022-08-24T15:12:00;6.95;;;5.10;;
23300;SDS011;11819;51.394;12.340;2022-08-24T15:14:44;6.82;;;4.70;;
23300;SDS011;11819;51.394;12.340;2022-08-24T15:17:16;5.70;;;4.72;;
23300;SDS011;11819;51.394;12.340;2022-08-24T15:25:17;8.27;;;4.75;;
23300;SDS011;11819;51.394;12.340;2022-08-24T15:28:20;6.78;;;4.70;;
23300;SDS011;11819;51.394;12.340;2022-08-24T15:30:56;6.53;;;4.45;;
23300;SDS011;11819;51.394;12.340;2022-08-24T15:33:24;7.22;;;4.63;;
23300;SDS011;11819;51.394;12.340;2022-08-24T15:36:09;7.05;;;4.30;;
23300;SDS011;11819;51.394;12.340;2022-08-24T15:38:38;6.38;;;4.80;;
23300;SDS011;11819;51.394;12.340;2022-08-24T15:41:06;6.90;;;5.15;;
23300;SDS011;11819;51.394;12.340;2022-08-24T15:44:03;8.32;;;5.28;;
23300;SDS011;11819;51.394;12.340;2022-08-24T15:46:34;6.95;;;5.30;;
23300;SDS011;11819;51.394;12.340;2022-08-24T15:49:20;6.55;;;4.43;;
23300;SDS011;11819;51.394;12.340;2022-08-24T15:55:00;6.18;;;4.80;;
23300;SDS011;11819;51.394;12.340;2022-08-24T15:57:30;7.13;;;5.20;;
23300;SDS011;11819;51.394;12.340;2022-08-24T16:00:14;8.43;;;5.22;;
23300;SDS011;11819;51.394;12.340;2022-08-24T16:03:21;8.55;;;5.45;;
23300;SDS011;11819;51.394;12.340;2022-08-24T16:06:27;6.60;;;5.40;;
23300;SDS011;11819;51.394;12.340;2022-08-24T16:11:41;6.43;;;5.20;;
23300;SDS011;11819;51.394;12.340;2022-08-24T16:14:11;6.43;;;5.13;;
23300;SDS011;11819;51.394;12.340;2022-08-24T16:16:52;7.47;;;5.43;;
23300;SDS011;11819;51.394;12.340;2022-08-24T16:19:26;9.50;;;5.05;;
23300;SDS011;11819;51.394;12.340;2022-08-24T16:24:28;7.28;;;5.43;;
23300;SDS011;11819;51.394;12.340;2022-08-24T16:27:06;9.25;;;5.63;;
23300;SDS011;11819;51.394;12.340;2022-08-24T16:32:04;8.82;;;5.47;;
23300;SDS011;11819;51.394;12.340;2022-08-24T16:34:41;7.90;;;5.85;;
23300;SDS011;11819;51.394;12.340;2022-08-24T16:37:12;8.52;;;5.57;;
23300;SDS011;11819;51.394;12.340;2022-08-24T16:39:38;8.80;;;5.22;;
23300;SDS011;11819;51.394;12.340;2022-08-24T16:42:06;7.85;;;5.47;;
23300;SDS011;11819;51.394;12.340;2022-08-24T16:44:37;8.07;;;5.80;;
23300;SDS011;11819;51.394;12.340;2022-08-24T16:47:05;9.00;;;5.55;;
23300;SDS011;11819;51.394;12.340;2022-08-24T16:49:31;8.25;;;6.03;;
23300;SDS011;11819;51.394;12.340;2022-08-24T16:51:57;7.63;;;6.15;;
23300;SDS011;11819;51.394;12.340;2022-08-24T16:54:23;9.43;;;5.80;;
23300;SDS011;11819;51.394;12.340;2022-08-24T16:56:50;7.53;;;6.38;;
23300;SDS011;11819;51.394;12.340;2022-08-24T16:59:25;8.98;;;5.93;;
23300;SDS011;11819;51.394;12.340;2022-08-24T17:01:53;9.70;;;6.30;;
23300;SDS011;11819;51.394;12.340;2022-08-24T17:04:18;8.27;;;6.25;;
23300;SDS011;11819;51.394;12.340;2022-08-24T17:06:44;10.02;;;5.53;;
23300;SDS011;11819;51.394;12.340;2022-08-24T17:09:12;8.45;;;5.95;;
23300;SDS011;11819;51.394;12.340;2022-08-24T17:11:37;7.90;;;5.65;;
23300;SDS011;11819;51.394;12.340;2022-08-24T17:14:03;6.93;;;5.60;;
23300;SDS011;11819;51.394;12.340;2022-08-24T17:16:29;7.65;;;5.68;;
23300;SDS011;11819;51.394;12.340;2022-08-24T17:18:56;7.10;;;6.03;;
23300;SDS011;11819;51.394;12.340;2022-08-24T17:21:23;8.18;;;6.20;;
23300;SDS011;11819;51.394;12.340;2022-08-24T17:23:49;8.10;;;6.03;;
23300;SDS011;11819;51.394;12.340;2022-08-24T17:26:15;8.98;;;6.38;;
23300;SDS011;11819;51.394;12.340;2022-08-24T17:28:42;8.45;;;6.38;;
23300;SDS011;11819;51.394;12.340;2022-08-24T17:31:11;9.68;;;6.70;;
23300;SDS011;11819;51.394;12.340;2022-08-24T17:33:37;7.88;;;6.53;;
23300;SDS011;11819;51.394;12.340;2022-08-24T17:36:03;12.45;;;7.75;;
23300;SDS011;11819;51.394;12.340;2022-08-24T17:38:30;10.65;;;8.20;;